Time;durP1;ratioP1;P1;durP2;ratioP2;P2;SDS_P1;SDS_P2;PMS_P1;PMS_P2;Temp;Humidity;BMP_temperature;BMP_pressure;BME280_temperature;BME280_humidity;BME280_pressure;Samples;Min_cycle;Max_cycle;Signal;HPM_P1;HPM_P2
2023/09/01 21:45:09;;;;;;;6.15;3.78;;;;;;;22.60;81.64;101155.81;5070862;27;2285065;-71
2023/09/01 21:47:38;;;;;;;6.53;3.30;;;;;;;22.76;82.41;101156.75;5123605;27;20078;-71
2023/09/01 21:50:07;;;;;;;5.07;3.63;;;;;;;22.76;82.24;101153.97;5111311;28;20059;-72
2023/09/01 21:52:36;;;;;;;3.67;3.38;;;;;;;22.82;80.43;101151.72;5092294;28;20036;-71
2023/09/01 21:55:05;;;;;;;5.00;3.50;;;;;;;22.75;80.56;101154.31;5111181;28;20389;-72
2023/09/01 21:57:33;;;;;;;4.78;3.30;;;;;;;22.79;80.41;101152.44;5114714;28;20062;-72
2023/09/01 22:00:03;;;;;;;4.45;3.30;;;;;;;22.54;80.91;101153.25;5110576;28;20036;-71
2023/09/01 22:02:31;;;;;;;3.67;3.22;;;;;;;22.60;81.42;101153.03;5121134;28;20058;-72
2023/09/01 22:04:59;;;;;;;4.88;3.70;;;;;;;22.72;81.49;101153.03;5109099;28;20040;-71
2023/09/01 22:07:28;;;;;;;5.20;3.55;;;;;;;22.46;81.84;101150.56;5128528;28;20035;-71
2023/09/01 22:09:57;;;;;;;5.22;3.67;;;;;;;22.55;81.51;101154.88;5123728;28;20043;-72
2023/09/01 22:12:26;;;;;;;6.07;3.45;;;;;;;22.38;82.49;101160.69;5114869;28;20035;-71
2023/09/01 22:14:54;;;;;;;4.68;4.28;;;;;;;22.27;82.33;101154.72;5115215;28;20047;-72
2023/09/01 22:17:23;;;;;;;5.22;3.60;;;;;;;22.31;82.49;101164.03;5124362;28;20040;-72
2023/09/01 22:19:55;;;;;;;3.58;3.22;;;;;;;22.27;83.02;101155.56;5087979;28;20044;-73
2023/09/01 22:22:23;;;;;;;4.07;3.58;;;;;;;22.17;83.37;101156.00;5108516;28;20044;-72
2023/09/01 22:24:51;;;;;;;3.50;3.28;;;;;;;22.08;83.68;101153.31;5115631;28;20039;-72
2023/09/01 22:27:19;;;;;;;5.50;3.63;;;;;;;22.17;83.40;101147.63;5115299;28;20505;-72
2023/09/01 22:29:47;;;;;;;4.43;3.92;;;;;;;22.31;82.58;101155.66;5117754;28;20039;-72
2023/09/01 22:32:15;;;;;;;6.15;3.92;;;;;;;22.08;85.55;101156.09;5090394;28;20043;-73
2023/09/01 22:34:43;;;;;;;4.88;3.42;;;;;;;22.08;83.94;101158.88;5108981;28;20047;-72
2023/09/01 22:37:11;;;;;;;4.50;3.60;;;;;;;22.07;84.65;101162.00;5117638;28;20050;-73
2023/09/01 22:39:39;;;;;;;4.30;3.92;;;;;;;22.06;85.67;101163.16;5128769;28;20046;-72
2023/09/01 22:42:07;;;;;;;6.97;3.80;;;;;;;22.02;84.37;101158.31;5111173;28;20051;-72
2023/09/01 22:44:35;;;;;;;4.80;3.88;;;;;;;22.07;83.78;101164.78;5129195;28;20058;-73
2023/09/01 22:47:03;;;;;;;7.18;3.78;;;;;;;22.09;84.43;101168.06;5129246;28;20039;-73
2023/09/01 22:49:32;;;;;;;6.72;4.00;;;;;;;22.09;83.82;101176.44;5128408;28;20057;-72
2023/09/01 22:52:01;;;;;;;4.10;3.70;;;;;;;22.09;83.46;101176.44;5094396;28;20047;-73
2023/09/01 22:54:29;;;;;;;5.53;3.80;;;;;;;22.09;86.73;101177.22;5126759;28;20054;-73
2023/09/01 22:56:57;;;;;;;4.63;3.55;;;;;;;22.02;84.48;101172.22;5096565;28;20039;-72
2023/09/01 22:59:25;;;;;;;4.30;3.90;;;;;;;22.12;84.45;101184.09;5115099;28;20831;-73
2023/09/01 23:01:52;;;;;;;4.47;3.80;;;;;;;21.99;85.82;101180.44;5104755;28;20504;-72
2023/09/01 23:04:20;;;;;;;5.35;3.85;;;;;;;22.00;85.54;101184.88;5097860;28;20051;-72
2023/09/01 23:06:48;;;;;;;4.78;3.53;;;;;;;21.90;84.20;101186.13;5096869;28;20040;-72
2023/09/01 23:09:17;;;;;;;4.80;4.00;;;;;;;21.95;85.35;101182.31;5114893;28;20043;-73
2023/09/01 23:11:46;;;;;;;4.03;3.60;;;;;;;21.98;85.23;101188.00;5114845;28;20054;-73
2023/09/01 23:14:14;;;;;;;5.50;3.53;;;;;;;22.08;85.27;101191.50;5115110;28;20047;-73
2023/09/01 23:16:42;;;;;;;7.28;3.88;;;;;;;22.08;84.96;101189.53;5114437;28;20054;-73
2023/09/01 23:19:10;;;;;;;6.05;4.53;;;;;;;21.94;86.65;101184.25;5114313;28;20047;-73
2023/09/01 23:21:38;;;;;;;5.63;3.80;;;;;;;21.92;86.54;101189.38;5114743;28;20051;-72
2023/09/01 23:24:06;;;;;;;10.57;4.22;;;;;;;21.76;88.13;101183.63;5114906;28;20413;-73
2023/09/01 23:26:34;;;;;;;6.50;4.03;;;;;;;;;;5114382;28;20055;-72
2023/09/01 23:29:02;;;;;;;6.43;4.38;;;;;;;21.52;89.57;101181.50;5114620;28;20058;-73
2023/09/01 23:31:30;;;;;;;5.32;4.13;;;;;;;21.47;90.76;101186.13;5114495;28;20835;-73
2023/09/01 23:33:58;;;;;;;5.13;4.30;;;;;;;21.48;91.78;101192.53;5114374;28;20043;-72
2023/09/01 23:36:26;;;;;;;5.88;4.63;;;;;;;21.45;91.80;101182.88;5114182;28;20047;-73
2023/09/01 23:38:54;;;;;;;5.97;4.80;;;;;;;21.33;92.03;101186.41;5114131;28;20485;-73
2023/09/01 23:41:22;;;;;;;5.35;4.13;;;;;;;21.29;93.34;101179.06;5114404;28;20043;-73
2023/09/01 23:43:50;;;;;;;6.05;4.50;;;;;;;21.37;92.64;101186.56;5113824;28;20406;-72
2023/09/01 23:46:18;;;;;;;7.00;4.35;;;;;;;21.26;93.61;101185.34;5113231;28;20043;-72
2023/09/01 23:48:46;;;;;;;4.75;4.35;;;;;;;21.26;94.81;101188.13;5113197;28;20398;-72
2023/09/01 23:51:14;;;;;;;5.78;4.40;;;;;;;21.19;93.87;101186.69;5114168;28;20048;-72
2023/09/01 23:53:42;;;;;;;4.65;4.22;;;;;;;21.34;92.47;101171.34;5113735;28;20055;-72
2023/09/01 23:56:11;;;;;;;5.85;4.47;;;;;;;21.30;94.13;101183.47;5077901;28;20048;-72
2023/09/01 23:58:38;;;;;;;5.15;4.63;;;;;;;21.29;93.87;101187.41;5112172;28;20039;-72
